LIRALIMJ

Guest
Details From LIRA - CIAMPINO
To LIMJ - Genova Sestri
Flight Number -
Tags generated
Created
Modified
Stats Distance 230 nm / 425 km
Max Altitude 28,100 ft / 8,565 m
Waypoints 4
Social Downloads 0
Likes 0
Share VATSIM

Download

Looking for another format? Having issues loading an existing format? Contact us
Advertisement - Login to hide

Notes

Basic altitude profile: - Ascent Rate: 2500ft/min - Ascent Speed: 250kts - Cruise Altitude: 35000ft - Cruise Speed: 420kts - Descent Rate: 1500ft/min - Descent Speed: 250kts Options: - Use NATs: yes - Use PACOTS: yes - Use low airways: yes - Use high airways: yes

Route

LIRA XIBIL UL153 MAREL LIMJ

ID Type Via Altitude (ft/m) Position (lat/lon) Dist (leg/tot) Name
O LIRA APT - 0 / 0 41.79923 / 12.59492 - / 0 nm CIAMPINO
XIBIL FIX - 28,100 / 8,565 42.79694 / 10.98389 93 / 93 nm
MAREL FIX UL153 (AWY-HI) 24,500 / 7,468 43.28194 / 10.65139 32 / 125 nm
O LIMJ APT - 0 / 0 44.41196 / 8.84187 103 / 229 nm Genova Sestri

Altitude Profile

Advertisement - Login to hide

Weather


0- 5 10 15 20 25 30 35+ Temperature / °C

Clouds and Precipitation
Forecast for 2019-08-26 12:00 UTC. Updated 41 minutes ago

Ground ~20,000 ft ~40,000 ft Winds

LIRA

Details ICAO LIRA (CIA)
Name Rome-Ciampino G. B. Pastine
Region Italy
Timezone Europe/Rome (UTC+2.0)
Stats Elevation 424 ft / 129 m (AMSL)
Location 41.799200° 12.594900°
Runways 1
Magnetic Variation 3.236° E

METAR

LIRA 260950Z VRB03KT 9999 FEW035 29/18 Q1017

Decode

TAF

TAF LIRA 260500Z 2606/2706 VRB05KT 9999 SCT030 BECMG 2610/2612 23010KT TEMPO 2612/2618 TSRA BECMG 2616/2618 VRB05KT

Decode

Departure Runways

ID Width Length Bearing (true/mag) Surface Threshold Overrun Markings Lighting
15 151 ft / 46 m 7,235 ft / 2,205 m 152.77° / 149.54° ASPHALT 0 ft / 0 m 0 ft / 0 m PREC-APP CENTERLINE EDGE THRESHOLD CALVERT REIL-OMNI
33 151 ft / 46 m 7,235 ft / 2,205 m 332.78° / 329.54° ASPHALT 0 ft / 0 m 0 ft / 0 m PREC-APP CENTERLINE EDGE THRESHOLD REIL-OMNI

LIMJ

Details ICAO LIMJ (GOA)
Name Genoa Cristoforo Colombo
Region Italy
Timezone Unknown
Stats Elevation 13 ft / 4 m (AMSL)
Location 44.412000° 8.841870°
Runways 1
Magnetic Variation 2.580° E

METAR

LIMJ 260950Z 20006KT CAVOK 29/21 Q1017

Decode

TAF

TAF LIMJ 260500Z 2606/2706 04006KT CAVOK

Decode

Destination Runways

ID Width Length Bearing (true/mag) Surface Threshold Overrun Markings Lighting
10 148 ft / 45 m 9,576 ft / 2,919 m 105.34° / 102.76° ASPHALT 0 ft / 0 m 197 ft / 60 m PREC-APP CENTERLINE EDGE THRESHOLD REIL-OMNI
28 148 ft / 45 m 9,576 ft / 2,919 m 285.37° / 282.79° ASPHALT 535 ft / 163 m 0 ft / 0 m PREC-APP CENTERLINE EDGE THRESHOLD SALS REIL-OMNI

Approach Navaids

Runway Type Ident Frequency Range Bearing (true/mag) Slope Elevation
28 LOC-ILS GSE 109.30 MHz 18 nm / 33 km 285.40° / 282.82 ° - 9 ft / 3 m (AMSL)
28 GS GSE 109.30 MHz 10 nm / 19 km 285.40° / 282.82 ° 3.17° 26 ft / 8 m (AMSL)
28 DME GSE 109.30 MHz 18 nm / 33 km - - 26 ft / 8 m (AMSL)

Popular Alternatives